Time;durP1;ratioP1;P1;durP2;ratioP2;P2;SDS_P1;SDS_P2;PMS_P1;PMS_P2;Temp;Humidity;BMP_temperature;BMP_pressure;BME280_temperature;BME280_humidity;BME280_pressure;Samples;Min_cycle;Max_cycle;Signal;HPM_P1;HPM_P2
2022/10/05 00:05:53;;;;;;;;;;;13.00;99.90;;;;;;12475848;28;20404;-86
2022/10/05 00:11:55;;;;;;;;;;;12.90;99.90;;;;;;12471054;28;19929;-85
2022/10/05 00:17:57;;;;;;;;;;;12.90;99.90;;;;;;12472741;28;19936;-86
2022/10/05 00:23:59;;;;;;;;;;;12.90;99.90;;;;;;12471866;28;19925;-86
2022/10/05 00:30:06;;;;;;;;;;;12.80;99.90;;;;;;12450229;28;19925;-85
2022/10/05 00:36:08;;;;;;;;;;;12.90;99.90;;;;;;12474690;28;20381;-85
2022/10/05 00:42:17;;;;;;;;;;;12.80;99.90;;;;;;12480663;28;20621;-85
2022/10/05 00:48:27;;;;;;;;;;;12.80;99.90;;;;;;12481060;28;19937;-85
2022/10/05 00:54:36;;;;;;;;;;;12.80;99.90;;;;;;12472155;28;19937;-86
2022/10/05 01:00:42;;;;;;;;;;;12.80;99.90;;;;;;12485140;28;20309;-85
2022/10/05 01:06:50;;;;;;;;;;;12.80;99.90;;;;;;12487473;28;20681;-86
2022/10/05 01:12:59;;;;;;;;;;;12.70;99.90;;;;;;12487531;28;19954;-86
2022/10/05 01:19:20;;;;;;;;;;;12.70;99.90;;;;;;12471424;28;19926;-86
2022/10/05 01:25:34;;;;;;;;;;;12.70;99.90;;;;;;12468415;28;20412;-85
2022/10/05 01:31:46;;;;;;;;;;;12.80;99.90;;;;;;12477921;28;19929;-85
2022/10/05 01:37:56;;;;;;;;;;;12.80;99.90;;;;;;12478845;28;19925;-86
2022/10/05 01:44:01;;;;;;;;;;;12.80;99.90;;;;;;12478714;28;19925;-86
2022/10/05 01:50:06;;;;;;;;;;;12.70;99.90;;;;;;12493742;28;19926;-85
2022/10/05 01:56:08;;;;;;;;;;;12.70;99.90;;;;;;12467970;28;20375;-85
2022/10/05 02:02:11;;;;;;;;;;;12.70;99.90;;;;;;12476017;28;19933;-85
2022/10/05 02:08:15;;;;;;;;;;;12.70;99.90;;;;;;12471553;28;19971;-86
2022/10/05 02:14:19;;;;;;;;;;;12.70;99.90;;;;;;12461899;28;19976;-86
2022/10/05 02:20:26;;;;;;;;;;;12.80;99.90;;;;;;12469843;28;19956;-85
2022/10/05 02:26:30;;;;;;;;;;;12.70;99.90;;;;;;12470150;28;19925;-84
2022/10/05 02:32:35;;;;;;;;;;;12.70;99.90;;;;;;12464158;28;19933;-85
2022/10/05 02:38:49;;;;;;;;;;;12.70;99.90;;;;;;12453829;28;19925;-86
2022/10/05 02:45:00;;;;;;;;;;;12.70;99.90;;;;;;12452917;28;19933;-85
2022/10/05 02:51:07;;;;;;;;;;;12.70;99.90;;;;;;12475673;28;19932;-85
2022/10/05 02:57:13;;;;;;;;;;;12.70;99.90;;;;;;12471602;28;20285;-85
2022/10/05 03:03:22;;;;;;;;;;;12.80;99.90;;;;;;12468882;28;19956;-85
2022/10/05 03:09:26;;;;;;;;;;;12.70;99.90;;;;;;12466419;28;19929;-86
2022/10/05 03:15:27;;;;;;;;;;;12.80;99.90;;;;;;12466263;28;19936;-86
2022/10/05 03:21:47;;;;;;;;;;;12.80;99.90;;;;;;12464677;28;19932;-85
2022/10/05 03:27:53;;;;;;;;;;;12.80;99.90;;;;;;12458616;28;19932;-85
2022/10/05 03:33:58;;;;;;;;;;;12.90;99.90;;;;;;12460241;28;19925;-84
2022/10/05 03:40:12;;;;;;;;;;;12.80;99.90;;;;;;12467348;28;19929;-85
2022/10/05 03:46:26;;;;;;;;;;;12.90;99.90;;;;;;12459273;28;20378;-85
2022/10/05 03:52:35;;;;;;;;;;;12.90;99.90;;;;;;12468468;28;20278;-85
2022/10/05 03:58:44;;;;;;;;;;;12.90;99.90;;;;;;12457040;28;19929;-85
2022/10/05 04:04:47;;;;;;;;;;;12.90;99.90;;;;;;12460137;28;19925;-85
2022/10/05 04:10:50;;;;;;;;;;;12.80;99.90;;;;;;12463347;28;19926;-85
2022/10/05 04:16:58;;;;;;;;;;;12.90;99.90;;;;;;12461052;28;19936;-85
2022/10/05 04:23:05;;;;;;;;;;;12.90;99.90;;;;;;12459560;28;19929;-85
2022/10/05 04:29:16;;;;;;;;;;;12.90;99.90;;;;;;12466317;28;19926;-85
2022/10/05 04:35:39;;;;;;;;;;;12.90;99.90;;;;;;12468139;28;20308;-85
2022/10/05 04:42:01;;;;;;;;;;;12.90;99.90;;;;;;12454610;28;20424;-85
2022/10/05 04:48:22;;;;;;;;;;;12.90;99.90;;;;;;12498782;28;20393;-86
2022/10/05 04:54:42;;;;;;;;;;;12.90;99.90;;;;;;12471894;28;19929;-85
2022/10/05 05:01:02;;;;;;;;;;;12.90;99.90;;;;;;12478425;28;19936;-85
2022/10/05 05:07:22;;;;;;;;;;;12.90;99.90;;;;;;12464541;28;19929;-85
2022/10/05 05:13:34;;;;;;;;;;;12.90;99.90;;;;;;12472561;28;20378;-85
2022/10/05 05:19:36;;;;;;;;;;;12.90;99.90;;;;;;12476863;28;19994;-85
2022/10/05 05:25:44;;;;;;;;;;;12.80;99.90;;;;;;12474308;28;19925;-85
2022/10/05 05:31:48;;;;;;;;;;;12.90;99.90;;;;;;12466096;28;20020;-86
2022/10/05 05:37:50;;;;;;;;;;;12.90;99.90;;;;;;12470423;28;19929;-86
2022/10/05 05:43:54;;;;;;;;;;;12.90;99.90;;;;;;12476058;28;20295;-86
2022/10/05 05:50:19;;;;;;;;;;;12.90;99.90;;;;;;12472448;28;19930;-86
2022/10/05 05:56:31;;;;;;;;;;;12.90;99.90;;;;;;12480068;28;19929;-85
2022/10/05 06:02:41;;;;;;;;;;;13.00;99.90;;;;;;12482134;28;19936;-86
2022/10/05 06:08:49;;;;;;;;;;;13.00;99.90;;;;;;12471248;28;19925;-86
2022/10/05 06:14:53;;;;;;;;;;;13.00;99.90;;;;;;12471836;28;20424;-86
2022/10/05 06:20:58;;;;;;;;;;;13.00;99.90;;;;;;12464661;28;19925;-86
2022/10/05 06:26:59;;;;;;;;;;;13.10;99.90;;;;;;12469761;28;20387;-86
2022/10/05 06:33:21;;;;;;;;;;;13.20;99.90;;;;;;12479039;28;19936;-87
2022/10/05 06:39:26;;;;;;;;;;;13.30;99.90;;;;;;12467193;28;19925;-86
2022/10/05 06:45:28;;;;;;;;;;;13.30;99.90;;;;;;12464906;28;20264;-85
2022/10/05 06:51:33;;;;;;;;;;;13.40;99.90;;;;;;12462597;28;20560;-85
2022/10/05 06:57:35;;;;;;;;;;;13.40;99.90;;;;;;12477214;28;20204;-86
2022/10/05 07:03:48;;;;;;;;;;;13.50;99.90;;;;;;12466120;28;19925;-85
2022/10/05 07:09:56;;;;;;;;;;;13.30;99.90;;;;;;12476325;28;19933;-86
2022/10/05 07:16:17;;;;;;;;;;;13.40;99.90;;;;;;12471259;28;20342;-85
2022/10/05 07:22:24;;;;;;;;;;;13.50;99.90;;;;;;12463170;28;19932;-84
2022/10/05 07:28:34;;;;;;;;;;;13.50;99.90;;;;;;12466662;28;19983;-84
2022/10/05 07:34:54;;;;;;;;;;;13.60;99.90;;;;;;12462093;28;20707;-85
2022/10/05 07:40:59;;;;;;;;;;;13.70;99.90;;;;;;12465167;28;19925;-85
2022/10/05 07:47:07;;;;;;;;;;;13.90;99.90;;;;;;12459674;28;19968;-86
2022/10/05 07:53:15;;;;;;;;;;;13.90;99.90;;;;;;12475091;28;19932;-86
2022/10/05 07:59:16;;;;;;;;;;;14.00;99.90;;;;;;12467545;28;20754;-86
2022/10/05 08:05:18;;;;;;;;;;;14.10;99.90;;;;;;12472943;28;19932;-86
2022/10/05 08:11:23;;;;;;;;;;;14.20;99.90;;;;;;12494595;28;20408;-86
2022/10/05 08:17:47;;;;;;;;;;;14.30;99.90;;;;;;12473034;28;19925;-86
2022/10/05 08:24:04;;;;;;;;;;;14.30;99.90;;;;;;12465499;28;20401;-86
2022/10/05 08:30:10;;;;;;;;;;;14.40;99.90;;;;;;12468458;28;19933;-86
2022/10/05 08:36:13;;;;;;;;;;;14.50;99.90;;;;;;12478282;28;19933;-86
2022/10/05 08:42:17;;;;;;;;;;;14.50;99.90;;;;;;12528741;28;19941;-87
2022/10/05 08:48:19;;;;;;;;;;;14.50;99.90;;;;;;12530837;28;19964;-86
2022/10/05 08:54:24;;;;;;;;;;;14.50;99.90;;;;;;12550915;28;19945;-86
2022/10/05 09:00:34;;;;;;;;;;;14.50;99.90;;;;;;12522026;28;19917;-87
2022/10/05 09:06:50;;;;;;;;;;;14.50;99.90;;;;;;12536106;28;19931;-87
2022/10/05 09:13:12;;;;;;;;;;;14.50;99.90;;;;;;12505118;28;19929;-85
2022/10/05 09:19:33;;;;;;;;;;;14.60;99.90;;;;;;12446824;28;19925;-87
2022/10/05 09:25:42;;;;;;;;;;;14.50;99.90;;;;;;12483840;28;20000;-86
2022/10/05 09:32:09;;;;;;;;;;;14.50;99.90;;;;;;12471732;28;19929;-85
2022/10/05 09:38:35;;;;;;;;;;;14.50;99.90;;;;;;12469809;28;19925;-87
2022/10/05 09:44:36;;;;;;;;;;;14.60;99.90;;;;;;12472175;28;19934;-87
2022/10/05 09:50:50;;;;;;;;;;;14.60;99.90;;;;;;12480959;28;19929;-86
2022/10/05 09:56:55;;;;;;;;;;;14.70;99.90;;;;;;12469648;28;20288;-87
2022/10/05 10:03:15;;;;;;;;;;;14.80;99.90;;;;;;12467943;28;20016;-86
2022/10/05 10:09:17;;;;;;;;;;;14.90;99.90;;;;;;12476101;28;19980;-85
2022/10/05 10:15:34;;;;;;;;;;;14.90;99.90;;;;;;12491633;28;19951;-86
2022/10/05 10:21:47;;;;;;;;;;;15.10;99.90;;;;;;12481584;28;20305;-84
2022/10/05 10:28:05;;;;;;;;;;;15.20;99.90;;;;;;12468850;28;19944;-85
2022/10/05 10:34:26;;;;;;;;;;;15.40;99.90;;;;;;12462395;28;20049;-87
2022/10/05 10:40:33;;;;;;;;;;;15.40;99.90;;;;;;12481642;28;19925;-85
2022/10/05 10:46:44;;;;;;;;;;;15.50;99.90;;;;;;12472109;28;19936;-85
2022/10/05 10:53:18;;;;;;;;;;;15.70;99.90;;;;;;12479792;28;19925;-86
2022/10/05 10:59:40;;;;;;;;;;;15.80;99.90;;;;;;12460544;28;20388;-86
2022/10/05 11:05:41;;;;;;;;;;;16.10;99.90;;;;;;12455846;28;19929;-86
2022/10/05 11:12:07;;;;;;;;;;;16.20;99.90;;;;;;12422322;28;19929;-86
2022/10/05 11:18:14;;;;;;;;;;;16.60;99.90;;;;;;12418582;28;20370;-86
2022/10/05 11:24:40;;;;;;;;;;;16.80;99.90;;;;;;12416231;28;20067;-86
2022/10/05 11:31:00;;;;;;;;;;;16.70;99.90;;;;;;12422039;28;19936;-85
2022/10/05 11:37:21;;;;;;;;;;;16.70;99.90;;;;;;12417650;28;19937;-86
2022/10/05 11:43:36;;;;;;;;;;;16.70;99.90;;;;;;12415902;28;19933;-88
2022/10/05 11:49:42;;;;;;;;;;;16.90;99.90;;;;;;12415542;28;19926;-87
2022/10/05 11:55:56;;;;;;;;;;;17.00;99.90;;;;;;12432131;28;20370;-87
2022/10/05 12:02:16;;;;;;;;;;;17.20;99.90;;;;;;12411856;28;19930;-87
2022/10/05 12:08:18;;;;;;;;;;;17.50;99.90;;;;;;12426780;28;19929;-86
2022/10/05 12:14:19;;;;;;;;;;;17.70;99.90;;;;;;12468329;28;19925;-86
2022/10/05 12:20:26;;;;;;;;;;;17.60;99.90;;;;;;12456219;28;19936;-86
2022/10/05 12:26:31;;;;;;;;;;;17.60;99.90;;;;;;12470141;28;19925;-85
2022/10/05 12:32:41;;;;;;;;;;;17.60;99.90;;;;;;12471051;28;19935;-86
2022/10/05 12:38:43;;;;;;;;;;;17.60;99.90;;;;;;12466247;28;20302;-86
2022/10/05 12:45:02;;;;;;;;;;;17.80;99.90;;;;;;12459903;28;19926;-86
2022/10/05 12:51:42;;;;;;;;;;;17.80;99.90;;;;;;12463387;28;20515;-86
2022/10/05 12:57:53;;;;;;;;;;;18.00;99.90;;;;;;12326873;28;20430;-86
2022/10/05 13:04:05;;;;;;;;;;;18.00;99.90;;;;;;12469669;28;20252;-86
2022/10/05 13:10:21;;;;;;;;;;;18.00;99.90;;;;;;12463721;28;20254;-86
2022/10/05 13:16:26;;;;;;;;;;;18.10;99.90;;;;;;12464222;28;19952;-87
2022/10/05 13:22:34;;;;;;;;;;;18.20;99.90;;;;;;12461355;28;20012;-87
2022/10/05 13:28:40;;;;;;;;;;;18.10;99.90;;;;;;12471275;28;19937;-86
2022/10/05 13:34:45;;;;;;;;;;;18.10;99.90;;;;;;12470596;28;20000;-86
2022/10/05 13:41:06;;;;;;;;;;;18.30;99.90;;;;;;12472787;28;19925;-87
2022/10/05 13:47:20;;;;;;;;;;;18.20;99.90;;;;;;12474030;28;19932;-86
2022/10/05 13:53:44;;;;;;;;;;;18.10;99.90;;;;;;12475605;28;19937;-85
2022/10/05 13:59:54;;;;;;;;;;;18.10;99.90;;;;;;12461206;28;19925;-85
2022/10/05 14:05:57;;;;;;;;;;;18.00;99.90;;;;;;12471669;28;19933;-86
2022/10/05 14:12:02;;;;;;;;;;;17.90;99.90;;;;;;12492726;28;19926;-86
2022/10/05 14:18:21;;;;;;;;;;;17.90;99.90;;;;;;12474066;28;19936;-87
2022/10/05 14:24:28;;;;;;;;;;;18.00;99.90;;;;;;12464740;28;19933;-87
2022/10/05 14:30:54;;;;;;;;;;;18.00;99.90;;;;;;12474325;28;19933;-87
2022/10/05 14:37:01;;;;;;;;;;;17.90;99.90;;;;;;12478861;28;20327;-87
2022/10/05 14:43:12;;;;;;;;;;;17.90;99.90;;;;;;12476994;28;20408;-87
2022/10/05 14:49:18;;;;;;;;;;;17.90;99.90;;;;;;12476133;28;20885;-87
2022/10/05 14:55:29;;;;;;;;;;;17.90;99.90;;;;;;12476070;28;19926;-87
2022/10/05 15:01:37;;;;;;;;;;;17.90;99.90;;;;;;12464109;28;19926;-87
2022/10/05 15:07:41;;;;;;;;;;;17.90;99.90;;;;;;12453453;28;19933;-87
2022/10/05 15:13:44;;;;;;;;;;;18.00;99.90;;;;;;12469409;28;19932;-87
2022/10/05 15:19:55;;;;;;;;;;;18.00;99.90;;;;;;12462623;28;19932;-87
2022/10/05 15:26:07;;;;;;;;;;;18.10;99.90;;;;;;12472875;28;19925;-87
2022/10/05 15:32:18;;;;;;;;;;;18.10;99.90;;;;;;12471167;28;19936;-88
2022/10/05 15:38:21;;;;;;;;;;;18.10;99.90;;;;;;12471173;28;19983;-88
2022/10/05 15:44:32;;;;;;;;;;;18.20;99.90;;;;;;12466707;28;19937;-88
2022/10/05 15:50:56;;;;;;;;;;;18.20;99.90;;;;;;12478974;28;19932;-88
2022/10/05 15:57:05;;;;;;;;;;;18.20;99.90;;;;;;12485106;28;19933;-87
2022/10/05 16:03:15;;;;;;;;;;;18.10;99.90;;;;;;12462351;28;19925;-87
2022/10/05 16:09:26;;;;;;;;;;;18.00;99.90;;;;;;12437863;28;19936;-87
2022/10/05 16:15:54;;;;;;;;;;;17.80;99.90;;;;;;12428897;28;19925;-87
2022/10/05 16:22:14;;;;;;;;;;;17.70;99.90;;;;;;12401705;28;19926;-87
2022/10/05 16:28:31;;;;;;;;;;;17.60;99.90;;;;;;12405569;28;19929;-87
2022/10/05 16:34:55;;;;;;;;;;;17.60;99.90;;;;;;12415617;28;19975;-87
2022/10/05 16:41:14;;;;;;;;;;;17.50;99.90;;;;;;12418767;28;19930;-87
2022/10/05 16:47:36;;;;;;;;;;;17.40;99.90;;;;;;12422722;28;19926;-87
2022/10/05 16:53:38;;;;;;;;;;;17.50;99.90;;;;;;12413677;28;19964;-87
2022/10/05 16:59:58;;;;;;;;;;;17.50;99.90;;;;;;12413723;28;19929;-86
2022/10/05 17:06:03;;;;;;;;;;;17.50;99.90;;;;;;12406734;28;20012;-86
2022/10/05 17:12:25;;;;;;;;;;;17.60;99.90;;;;;;12484674;28;19934;-86
2022/10/05 17:18:27;;;;;;;;;;;17.50;99.90;;;;;;12493178;28;19933;-86
2022/10/05 17:24:34;;;;;;;;;;;17.50;99.90;;;;;;12473257;28;19937;-85
2022/10/05 17:30:54;;;;;;;;;;;17.70;99.90;;;;;;12480207;28;19929;-85
2022/10/05 17:37:13;;;;;;;;;;;17.70;99.90;;;;;;12483289;28;20369;-85
2022/10/05 17:43:15;;;;;;;;;;;17.60;99.90;;;;;;12475664;28;19933;-84
2022/10/05 17:49:24;;;;;;;;;;;17.60;99.90;;;;;;12488880;28;19925;-85
2022/10/05 17:55:32;;;;;;;;;;;17.60;99.90;;;;;;12472913;28;19932;-84
2022/10/05 18:01:38;;;;;;;;;;;17.60;99.90;;;;;;12464770;28;19925;-84
2022/10/05 18:07:47;;;;;;;;;;;17.50;99.90;;;;;;12478230;28;19937;-85
2022/10/05 18:14:09;;;;;;;;;;;17.50;99.90;;;;;;12480692;28;19926;-85
2022/10/05 18:20:13;;;;;;;;;;;17.50;99.90;;;;;;12466102;28;19929;-85
2022/10/05 18:26:33;;;;;;;;;;;17.40;99.90;;;;;;12484839;28;19929;-86
2022/10/05 18:32:38;;;;;;;;;;;17.40;99.90;;;;;;12465677;28;19929;-85
2022/10/05 18:38:43;;;;;;;;;;;17.40;99.90;;;;;;12473456;28;19936;-85
2022/10/05 18:45:03;;;;;;;;;;;17.30;99.90;;;;;;12464490;28;19929;-86
2022/10/05 18:51:27;;;;;;;;;;;17.30;99.90;;;;;;12482918;28;19929;-84
2022/10/05 18:57:34;;;;;;;;;;;17.30;99.90;;;;;;12474295;28;20370;-86
2022/10/05 19:03:36;;;;;;;;;;;17.30;99.90;;;;;;12466434;28;20305;-84
2022/10/05 19:09:44;;;;;;;;;;;17.40;99.90;;;;;;12479587;28;19940;-85
2022/10/05 19:15:52;;;;;;;;;;;17.40;99.90;;;;;;12476351;28;19936;-85
2022/10/05 19:21:54;;;;;;;;;;;17.30;99.90;;;;;;12462745;28;19925;-85
2022/10/05 19:28:06;;;;;;;;;;;17.40;99.90;;;;;;12458871;28;20444;-85
2022/10/05 19:34:15;;;;;;;;;;;17.40;99.90;;;;;;12476099;28;19947;-85
2022/10/05 19:40:36;;;;;;;;;;;17.30;99.90;;;;;;12469011;28;20296;-85
2022/10/05 19:46:47;;;;;;;;;;;17.30;99.90;;;;;;12463270;28;19925;-86
2022/10/05 19:52:50;;;;;;;;;;;17.20;99.90;;;;;;12484011;28;19925;-87
2022/10/05 19:58:55;;;;;;;;;;;17.10;99.90;;;;;;12464340;28;20389;-86
2022/10/05 20:05:04;;;;;;;;;;;17.10;99.90;;;;;;12465025;28;20384;-85
2022/10/05 20:11:13;;;;;;;;;;;17.10;99.90;;;;;;12482969;28;19941;-86
2022/10/05 20:24:13;;;;;;;;;;;17.10;99.90;;;;;;12416830;28;19926;-86
2022/10/05 20:30:19;;;;;;;;;;;17.10;99.90;;;;;;12464664;28;19925;-86
2022/10/05 20:36:20;;;;;;;;;;;17.00;99.90;;;;;;12483078;28;19952;-86
2022/10/05 20:42:22;;;;;;;;;;;17.00;99.90;;;;;;12490602;28;19941;-86
2022/10/05 20:48:24;;;;;;;;;;;17.00;99.90;;;;;;12471326;28;20019;-85
2022/10/05 20:54:27;;;;;;;;;;;17.00;99.90;;;;;;12487143;28;19930;-86
2022/10/05 21:01:14;;;;;;;;;;;17.00;99.90;;;;;;12475361;28;19929;-85
2022/10/05 21:06:53;;;;;;;;;;;17.00;99.90;;;;;;12462495;28;19932;-85
2022/10/05 21:12:55;;;;;;;;;;;17.00;99.90;;;;;;12484201;28;19974;-87
2022/10/05 21:18:56;;;;;;;;;;;17.10;99.90;;;;;;12483461;28;19929;-85
2022/10/05 21:24:58;;;;;;;;;;;17.10;99.90;;;;;;12478363;28;19936;-84
2022/10/05 21:31:00;;;;;;;;;;;17.00;99.90;;;;;;12479062;28;19929;-86
2022/10/05 21:37:01;;;;;;;;;;;17.00;99.90;;;;;;12481704;28;19929;-85
2022/10/05 21:43:03;;;;;;;;;;;17.00;99.90;;;;;;12467967;28;19925;-86
2022/10/05 21:49:05;;;;;;;;;;;16.90;99.90;;;;;;12476391;28;20313;-85
2022/10/05 21:55:09;;;;;;;;;;;16.90;99.90;;;;;;12469584;28;19925;-85
2022/10/05 22:01:11;;;;;;;;;;;16.90;99.90;;;;;;12476271;28;19933;-86
2022/10/05 22:07:17;;;;;;;;;;;16.90;99.90;;;;;;12487641;28;20522;-85
2022/10/05 22:13:19;;;;;;;;;;;16.90;99.90;;;;;;12481108;28;19925;-86
2022/10/05 22:19:21;;;;;;;;;;;17.00;99.90;;;;;;12473171;28;19930;-85
2022/10/05 22:25:23;;;;;;;;;;;17.00;99.90;;;;;;12479511;28;20372;-85
2022/10/05 22:31:24;;;;;;;;;;;17.00;99.90;;;;;;12467934;28;20283;-86
2022/10/05 22:37:26;;;;;;;;;;;17.10;99.90;;;;;;12480268;28;19941;-85
2022/10/05 22:43:28;;;;;;;;;;;17.20;99.90;;;;;;12462464;28;19929;-84
2022/10/05 22:49:29;;;;;;;;;;;17.20;99.90;;;;;;12473480;28;19940;-86
2022/10/05 22:55:31;;;;;;;;;;;17.20;99.90;;;;;;12458880;28;19926;-86
2022/10/05 23:01:32;;;;;;;;;;;17.10;99.90;;;;;;12464763;28;19925;-85
2022/10/05 23:07:45;;;;;;;;;;;17.30;99.90;;;;;;12469042;28;19929;-85
2022/10/05 23:13:50;;;;;;;;;;;17.20;99.90;;;;;;12478356;28;21486;-85
2022/10/05 23:19:52;;;;;;;;;;;17.20;99.90;;;;;;12467668;28;19936;-85
2022/10/05 23:25:58;;;;;;;;;;;17.20;99.90;;;;;;12474468;28;19925;-86
2022/10/05 23:31:59;;;;;;;;;;;17.10;99.90;;;;;;12473902;28;19937;-85
2022/10/05 23:38:01;;;;;;;;;;;17.10;99.90;;;;;;12466104;28;19926;-85
2022/10/05 23:44:03;;;;;;;;;;;16.00;99.90;;;;;;12460460;28;19933;-84
2022/10/05 23:50:05;;;;;;;;;;;15.20;99.90;;;;;;12474475;28;20408;-85
2022/10/05 23:56:07;;;;;;;;;;;14.60;99.90;;;;;;12498162;28;20311;-86
